Time;durP1;ratioP1;P1;durP2;ratioP2;P2;SDS_P1;SDS_P2;PMS_P1;PMS_P2;Temp;Humidity;BMP_temperature;BMP_pressure;BME280_temperature;BME280_humidity;BME280_pressure;Samples;Min_cycle;Max_cycle;Signal;HPM_P1;HPM_P2
2023/01/24 00:00:12;;;;;;;83.90;46.40;;;;;;;3.77;100.00;102360.06;181184;1264;43889;-77
2023/01/24 00:09:34;;;;;;;70.70;45.00;;;;;;;3.94;100.00;102355.52;181202;1265;58049;-77
2023/01/24 00:13:39;;;;;;;84.90;45.60;;;;;;;3.95;100.00;102352.87;181159;1265;43132;-77
2023/01/24 00:17:42;;;;;;;90.40;47.40;;;;;;;3.96;100.00;102351.09;181177;1266;43836;-75
2023/01/24 00:21:45;;;;;;;84.50;44.80;;;;;;;3.95;100.00;102353.55;181167;1266;43110;-77
2023/01/24 00:26:18;;;;;;;76.50;46.70;;;;;;;3.95;100.00;102349.70;181155;1266;43690;-77
2023/01/24 00:30:21;;;;;;;77.60;43.10;;;;;;;3.97;100.00;102351.23;181144;1267;57911;-77
2023/01/24 00:34:24;;;;;;;76.20;44.50;;;;;;;3.99;100.00;102352.94;181115;1265;43207;-76
2023/01/24 00:38:28;;;;;;;93.30;53.20;;;;;;;3.99;100.00;102358.57;181146;1265;43000;-78
2023/01/24 00:43:04;;;;;;;73.30;44.90;;;;;;;3.96;100.00;102364.26;181116;1266;43443;-78
2023/01/24 00:47:07;;;;;;;77.80;47.30;;;;;;;3.93;100.00;102366.23;181111;1265;43049;-78
2023/01/24 00:51:16;;;;;;;90.60;48.70;;;;;;;3.93;100.00;102374.13;181128;1265;57982;-76
2023/01/24 00:55:19;;;;;;;93.00;49.80;;;;;;;3.95;100.00;102374.45;181057;1265;43017;-77
2023/01/24 00:59:41;;;;;;;90.80;48.30;;;;;;;3.93;100.00;102376.60;181224;1265;43160;-78
2023/01/24 01:03:44;;;;;;;81.60;47.90;;;;;;;3.93;100.00;102380.80;181204;1266;43072;-78
2023/01/24 01:07:47;;;;;;;76.90;44.30;;;;;;;3.92;100.00;102378.55;181172;1267;43726;-78
2023/01/24 01:11:50;;;;;;;94.30;52.70;;;;;;;3.87;100.00;102383.20;181103;1267;57906;-77
2023/01/24 01:16:00;;;;;;;83.80;48.90;;;;;;;3.83;100.00;102383.45;181202;1265;43729;-78
2023/01/24 01:20:09;;;;;;;78.80;45.90;;;;;;;3.84;100.00;102381.33;181112;1267;43027;-77
2023/01/24 01:24:15;;;;;;;87.10;51.10;;;;;;;3.88;100.00;102388.80;181142;1266;43761;-76
2023/01/24 01:28:17;;;;;;;79.30;46.40;;;;;;;3.92;100.00;102389.25;181097;1266;43752;-78
2023/01/24 01:32:20;;;;;;;86.00;48.80;;;;;;;3.95;100.00;102392.36;181205;1266;57056;-78
2023/01/24 01:36:23;;;;;;;91.60;47.80;;;;;;;3.91;100.00;102388.38;181204;1264;43068;-77
2023/01/24 01:40:26;;;;;;;98.10;49.70;;;;;;;3.92;100.00;102385.20;181133;1264;43769;-77
2023/01/24 01:49:31;;;;;;;93.50;48.50;;;;;;;3.94;100.00;102368.33;181220;1265;43656;-77
2023/01/24 01:58:59;;;;;;;107.40;55.80;;;;;;;3.97;100.00;102365.27;181206;1265;44172;-78
2023/01/24 02:08:01;;;;;;;;;;;;;;;4.08;100.00;102356.09;180125;1273;43735;-78
2023/01/24 02:12:10;;;;;;;91.40;52.40;;;;;;;4.09;100.00;102358.89;179994;1274;43319;-76
2023/01/24 02:16:15;;;;;;;93.30;51.70;;;;;;;4.12;100.00;102357.40;179764;1274;59344;-77
2023/01/24 02:20:37;;;;;;;91.70;55.30;;;;;;;4.20;100.00;102353.55;179959;1273;43098;-76
2023/01/24 02:24:49;;;;;;;96.80;54.90;;;;;;;4.26;100.00;102349.56;180074;1279;43839;-76
2023/01/24 02:29:03;;;;;;;86.80;49.00;;;;;;;4.30;100.00;102345.08;180062;1273;43112;-78
2023/01/24 02:33:20;;;;;;;86.20;50.00;;;;;;;4.35;100.00;102343.73;180081;1273;43735;-77
2023/01/24 02:42:38;;;;;;;100.30;52.20;;;;;;;4.48;100.00;102343.80;180999;1265;43096;-77
2023/01/24 02:47:03;;;;;;;83.90;54.20;;;;;;;4.52;100.00;102338.09;181089;1265;43770;-77
2023/01/24 03:00:41;;;;;;;91.90;50.90;;;;;;;4.63;100.00;102338.52;181047;1266;58139;-76
2023/01/24 03:05:01;;;;;;;90.30;50.90;;;;;;;4.61;100.00;102336.98;181083;1265;44072;-76
2023/01/24 03:09:18;;;;;;;93.20;53.70;;;;;;;4.57;100.00;102340.61;181096;1265;43014;-77
2023/01/24 03:35:19;;;;;;;100.60;53.60;;;;;;;4.58;100.00;102345.15;181145;1264;43669;-77
2023/01/24 03:39:59;;;;;;;97.10;51.30;;;;;;;4.56;100.00;102345.37;181164;1265;43395;-77
2023/01/24 03:44:07;;;;;;;98.90;51.20;;;;;;;4.53;99.91;102347.19;181075;1267;59593;-76
2023/01/24 03:48:13;;;;;;;101.80;53.30;;;;;;;4.48;100.00;102348.20;181102;1265;43475;-77
2023/01/24 03:52:28;;;;;;;102.00;55.90;;;;;;;4.43;99.74;102348.83;181133;1265;43649;-77
2023/01/24 03:56:31;;;;;;;88.50;50.90;;;;;;;4.34;99.79;102351.84;181173;1265;43224;-77
2023/01/24 04:01:25;;;;;;;97.10;56.90;;;;;;;4.31;100.00;102347.16;181140;1265;43468;-76
2023/01/24 04:05:28;;;;;;;84.10;51.10;;;;;;;4.24;100.00;102349.42;181118;1266;57893;-77
2023/01/24 04:09:31;;;;;;;86.40;52.30;;;;;;;4.21;100.00;102352.83;181114;1265;43045;-78
2023/01/24 04:13:33;;;;;;;96.50;55.20;;;;;;;4.15;100.00;102353.31;181071;1265;43855;-76
2023/01/24 04:17:37;;;;;;;83.30;49.50;;;;;;;4.10;100.00;102356.04;181103;1265;43055;-73
2023/01/24 04:21:40;;;;;;;86.80;53.40;;;;;;;4.06;100.00;102361.39;181006;1265;42985;-73
2023/01/24 04:25:54;;;;;;;93.10;50.10;;;;;;;4.02;100.00;102361.30;181022;1266;58059;-74
2023/01/24 04:29:57;;;;;;;81.10;48.70;;;;;;;4.02;100.00;102357.45;180989;1265;43059;-74
2023/01/24 04:34:00;;;;;;;103.70;53.30;;;;;;;4.01;100.00;102362.73;181094;1266;43702;-74
2023/01/24 04:39:05;;;;;;;79.70;47.80;;;;;;;3.96;100.00;102366.70;181057;1265;43757;-74
2023/01/24 04:43:08;;;;;;;76.10;49.50;;;;;;;3.93;100.00;102363.44;181182;1264;43001;-74
2023/01/24 04:47:13;;;;;;;82.40;46.40;;;;;;;3.89;100.00;102364.20;181061;1265;58073;-74
2023/01/24 04:51:42;;;;;;;87.70;51.90;;;;;;;3.89;100.00;102370.88;181035;1265;43742;-73
2023/01/24 04:55:45;;;;;;;80.60;45.20;;;;;;;3.86;100.00;102370.41;181155;1265;43076;-74
2023/01/24 04:59:49;;;;;;;71.80;44.70;;;;;;;3.87;100.00;102368.99;181077;1265;43646;-74
2023/01/24 05:03:58;;;;;;;76.50;44.10;;;;;;;3.85;100.00;102369.20;181045;1265;43813;-72
2023/01/24 05:08:01;;;;;;;83.90;48.10;;;;;;;3.83;100.00;102372.56;181073;1265;57857;-73
2023/01/24 05:12:04;;;;;;;82.00;47.70;;;;;;;3.83;100.00;102373.80;181056;1265;43772;-73
2023/01/24 05:16:07;;;;;;;85.10;47.90;;;;;;;3.82;100.00;102378.03;181124;1265;43702;-74
2023/01/24 05:20:10;;;;;;;73.30;44.50;;;;;;;3.83;100.00;102381.16;181055;1268;43509;-74
2023/01/24 05:24:22;;;;;;;78.40;48.60;;;;;;;3.83;100.00;102385.91;181088;1264;43350;-73
2023/01/24 05:28:24;;;;;;;70.30;43.20;;;;;;;3.82;100.00;102388.91;181169;1264;57924;-74
2023/01/24 05:32:42;;;;;;;74.50;40.30;;;;;;;3.80;100.00;102397.02;181187;1264;43125;-74
2023/01/24 05:36:44;;;;;;;68.60;42.70;;;;;;;3.77;100.00;102395.34;181132;1264;43673;-74
2023/01/24 05:41:09;;;;;;;62.10;40.20;;;;;;;3.74;100.00;102397.86;181118;1264;43742;-74
2023/01/24 05:45:12;;;;;;;72.70;44.30;;;;;;;3.75;100.00;102396.44;181189;1265;42969;-73
2023/01/24 05:49:37;;;;;;;65.40;43.60;;;;;;;3.75;100.00;102397.30;181101;1265;58201;-73
2023/01/24 05:53:42;;;;;;;86.30;44.20;;;;;;;3.82;100.00;102392.42;181044;1265;43403;-73
2023/01/24 05:58:40;;;;;;;67.80;44.90;;;;;;;3.83;100.00;102392.58;181095;1265;43807;-74
2023/01/24 06:02:42;;;;;;;;;;;;;;;3.81;100.00;102404.02;181152;1265;43642;-74
2023/01/24 06:06:48;;;;;;;77.10;43.80;;;;;;;3.80;100.00;102412.31;181086;1267;43576;-73
2023/01/24 06:10:51;;;;;;;57.40;40.10;;;;;;;3.79;100.00;102418.12;181168;1265;58128;-73
2023/01/24 06:14:53;;;;;;;68.10;41.80;;;;;;;3.79;100.00;102420.22;181174;1264;43141;-73
2023/01/24 06:18:56;;;;;;;70.10;41.00;;;;;;;3.79;100.00;102423.73;181127;1264;42979;-73
2023/01/24 06:23:06;;;;;;;70.60;42.70;;;;;;;3.78;100.00;102426.55;181183;1264;43760;-73
2023/01/24 06:27:12;;;;;;;70.60;43.20;;;;;;;3.78;100.00;102424.98;181133;1264;42993;-73
2023/01/24 06:31:27;;;;;;;61.10;40.60;;;;;;;3.78;100.00;102424.09;181093;1265;57966;-73
2023/01/24 06:35:45;;;;;;;71.20;43.80;;;;;;;3.80;100.00;102427.05;181101;1265;43787;-73
2023/01/24 06:39:53;;;;;;;72.40;43.10;;;;;;;3.83;100.00;102431.03;181230;1264;42999;-73
2023/01/24 06:43:56;;;;;;;71.10;43.80;;;;;;;3.88;100.00;102434.27;181107;1265;43219;-72
2023/01/24 06:47:59;;;;;;;70.20;42.40;;;;;;;3.93;100.00;102433.30;181224;1264;43719;-72
2023/01/24 06:52:06;;;;;;;67.00;43.10;;;;;;;3.99;100.00;102444.25;181110;1264;58235;-72
2023/01/24 06:56:09;;;;;;;68.40;41.70;;;;;;;4.00;100.00;102446.33;181145;1264;43382;-72
2023/01/24 07:00:38;;;;;;;70.30;41.50;;;;;;;4.03;100.00;102451.34;181159;1264;43820;-72
2023/01/24 07:04:41;;;;;;;65.70;41.70;;;;;;;4.07;100.00;102452.51;181161;1265;43533;-72
2023/01/24 07:08:43;;;;;;;68.10;44.50;;;;;;;4.09;100.00;102458.27;181126;1265;42987;-72
2023/01/24 07:12:53;;;;;;;63.80;39.30;;;;;;;4.14;100.00;102456.94;181180;1265;57891;-71
2023/01/24 07:16:56;;;;;;;67.80;43.00;;;;;;;4.15;100.00;102461.33;181218;1263;43676;-71
2023/01/24 07:20:59;;;;;;;70.30;43.20;;;;;;;4.13;100.00;102459.59;181181;1264;43416;-71
2023/01/24 07:25:03;;;;;;;69.60;43.90;;;;;;;4.12;100.00;102462.76;181205;1264;43132;-71
2023/01/24 07:29:06;;;;;;;67.80;45.70;;;;;;;4.16;100.00;102463.41;181166;1264;42957;-71
2023/01/24 07:33:37;;;;;;;77.10;48.40;;;;;;;4.18;100.00;102466.17;181191;1264;59847;-71
2023/01/24 07:37:40;;;;;;;64.20;44.00;;;;;;;4.19;100.00;102460.54;181210;1264;43835;-71
2023/01/24 07:41:43;;;;;;;74.60;44.80;;;;;;;4.20;100.00;102461.90;181220;1265;43484;-72
2023/01/24 07:45:47;;;;;;;79.20;45.00;;;;;;;4.23;100.00;102458.69;181142;1265;43391;-71
2023/01/24 07:49:52;;;;;;;74.80;42.70;;;;;;;4.27;100.00;102453.34;181114;1264;43723;-72
2023/01/24 07:53:55;;;;;;;67.20;43.30;;;;;;;4.36;100.00;102454.03;181173;1266;57992;-72
2023/01/24 07:58:00;;;;;;;70.70;41.50;;;;;;;4.39;100.00;102454.66;181226;1264;43054;-71
2023/01/24 08:02:03;;;;;;;73.40;40.80;;;;;;;4.40;100.00;102454.81;181160;1264;43754;-71
2023/01/24 08:06:06;;;;;;;63.10;36.60;;;;;;;4.47;100.00;102451.71;181101;1265;43320;-71
2023/01/24 08:10:09;;;;;;;76.90;44.30;;;;;;;4.49;100.00;102446.73;181172;1264;43683;-71
2023/01/24 08:14:15;;;;;;;80.50;51.50;;;;;;;4.55;100.00;102451.72;181142;1265;59187;-71
2023/01/24 08:18:19;;;;;;;76.60;46.20;;;;;;;4.60;100.00;102458.79;181234;1264;43791;-71
2023/01/24 08:22:22;;;;;;;92.80;53.10;;;;;;;4.55;99.69;102457.50;181192;1264;43747;-71
2023/01/24 08:26:26;;;;;;;77.10;45.30;;;;;;;4.52;99.89;102463.36;181186;1264;43673;-71
2023/01/24 08:30:29;;;;;;;81.60;46.10;;;;;;;4.50;99.74;102469.04;181130;1264;43035;-72
2023/01/24 08:34:35;;;;;;;71.80;44.50;;;;;;;4.47;99.95;102465.93;181115;1265;57908;-71
2023/01/24 08:38:38;;;;;;;86.20;48.90;;;;;;;4.48;99.89;102475.58;181179;1264;43050;-71
2023/01/24 08:42:42;;;;;;;100.60;57.20;;;;;;;4.50;100.00;102484.32;181193;1264;42987;-71
2023/01/24 08:47:11;;;;;;;73.30;41.80;;;;;;;4.51;99.91;102483.42;181196;1265;43634;-71
2023/01/24 08:51:14;;;;;;;124.60;71.60;;;;;;;4.49;99.85;102485.91;181200;1266;43691;-70
2023/01/24 08:55:17;;;;;;;127.50;75.20;;;;;;;4.48;99.80;102489.11;181112;1264;59576;-71
2023/01/24 08:59:21;;;;;;;89.20;49.80;;;;;;;4.51;99.99;102491.66;181172;1265;43851;-71
2023/01/24 09:03:26;;;;;;;99.30;53.10;;;;;;;4.55;99.99;102490.55;181127;1264;42978;-71
2023/01/24 09:07:29;;;;;;;82.50;49.00;;;;;;;4.57;99.96;102491.91;181114;1264;43191;-70
2023/01/24 09:11:32;;;;;;;69.20;43.90;;;;;;;4.58;99.83;102494.36;181139;1265;43054;-70
2023/01/24 09:15:37;;;;;;;72.10;43.00;;;;;;;4.64;100.00;102491.94;181096;1265;58652;-70
2023/01/24 09:19:40;;;;;;;78.80;48.50;;;;;;;4.68;100.00;102497.46;181091;1265;43617;-71
2023/01/24 09:23:43;;;;;;;73.80;45.10;;;;;;;4.74;100.00;102493.85;181119;1265;43037;-71
2023/01/24 09:27:53;;;;;;;71.30;42.50;;;;;;;4.77;99.76;102495.36;181075;1265;43076;-71
2023/01/24 09:32:19;;;;;;;64.50;40.30;;;;;;;4.77;99.68;102494.10;180481;1271;43797;-70
2023/01/24 09:36:23;;;;;;;68.20;45.00;;;;;;;4.81;99.63;102487.70;180788;1271;59180;-72
2023/01/24 09:40:42;;;;;;;70.10;48.00;;;;;;;4.85;99.57;102486.73;180679;1271;43078;-71
2023/01/24 09:44:48;;;;;;;68.40;41.60;;;;;;;4.84;99.09;102484.46;180771;1271;43105;-72
2023/01/24 09:49:21;;;;;;;75.60;43.40;;;;;;;4.83;99.08;102483.97;180898;1265;43138;-70
2023/01/24 09:53:29;;;;;;;79.20;43.20;;;;;;;4.84;99.55;102486.06;181019;1265;43718;-71
2023/01/24 09:58:04;;;;;;;69.90;43.20;;;;;;;4.82;99.45;102478.70;181058;1265;58200;-70
2023/01/24 10:02:20;;;;;;;73.30;42.60;;;;;;;4.84;98.80;102474.11;181114;1265;43622;-71
2023/01/24 10:06:26;;;;;;;81.00;44.40;;;;;;;4.86;99.47;102472.46;181130;1265;42969;-71
2023/01/24 10:10:39;;;;;;;70.70;46.40;;;;;;;4.87;98.82;102468.75;181042;1265;43777;-70
2023/01/24 10:20:45;;;;;;;80.10;47.40;;;;;;;4.94;99.02;102468.59;180781;1270;56957;-71
2023/01/24 10:24:59;;;;;;;75.20;45.20;;;;;;;4.96;99.00;102469.27;180792;1270;43144;-72
2023/01/24 10:29:17;;;;;;;70.40;44.00;;;;;;;4.98;98.88;102463.91;180837;1270;43107;-72
2023/01/24 10:33:20;;;;;;;71.50;44.00;;;;;;;5.02;98.83;102462.27;180833;1270;43195;-70
2023/01/24 10:37:25;;;;;;;73.40;45.70;;;;;;;5.07;99.06;102459.52;180848;1270;43056;-72
2023/01/24 10:41:31;;;;;;;66.00;39.80;;;;;;;5.10;99.18;102462.05;180839;1270;58200;-72
2023/01/24 10:50:17;;;;;;;76.60;45.50;;;;;;;5.14;98.44;102460.20;180776;1270;43061;-70
2023/01/24 10:54:22;;;;;;;69.00;44.70;;;;;;;5.14;97.96;102455.64;180839;1265;43722;-71
2023/01/24 10:58:30;;;;;;;77.90;46.20;;;;;;;5.15;97.89;102447.89;181217;1264;43704;-70
2023/01/24 11:02:36;;;;;;;92.50;49.00;;;;;;;5.21;98.25;102441.59;181181;1265;58204;-71
2023/01/24 11:06:39;;;;;;;62.10;42.70;;;;;;;5.24;98.28;102445.73;181197;1264;43647;-70
2023/01/24 11:10:44;;;;;;;63.60;37.20;;;;;;;5.26;98.29;102448.14;181154;1264;43020;-72
2023/01/24 11:15:19;;;;;;;72.10;43.60;;;;;;;5.28;97.71;102451.77;181025;1265;43765;-71
2023/01/24 11:19:27;;;;;;;65.60;40.60;;;;;;;5.28;97.75;102444.20;181139;1265;43720;-71
2023/01/24 11:23:31;;;;;;;73.40;44.80;;;;;;;5.28;97.41;102437.70;181189;1265;58119;-71
2023/01/24 11:27:52;;;;;;;64.60;41.60;;;;;;;5.27;97.70;102438.08;181078;1265;43768;-71
2023/01/24 11:32:01;;;;;;;75.80;42.30;;;;;;;5.24;97.61;102433.58;181049;1265;43704;-71
2023/01/24 11:36:34;;;;;;;72.50;40.50;;;;;;;5.24;98.50;102434.80;181062;1265;43781;-71
2023/01/24 11:46:23;;;;;;;60.90;37.20;;;;;;;5.15;97.51;102433.11;181106;1265;58452;-71
2023/01/24 11:50:32;;;;;;;72.70;45.10;;;;;;;5.18;98.69;102427.05;180999;1265;155332;-71
2023/01/24 11:55:02;;;;;;;73.50;44.40;;;;;;;5.23;99.22;102428.17;181122;1265;43618;-70
2023/01/24 11:59:42;;;;;;;78.50;45.60;;;;;;;5.28;98.77;102427.30;181028;1268;43171;-71
2023/01/24 12:04:07;;;;;;;77.70;49.20;;;;;;;5.27;98.86;102429.63;181012;1265;43348;-71
2023/01/24 12:08:28;;;;;;;73.30;46.00;;;;;;;5.34;99.27;102424.55;181080;1265;57880;-71
2023/01/24 12:12:49;;;;;;;74.60;45.20;;;;;;;5.38;98.32;102418.65;181010;1265;43070;-70
2023/01/24 12:17:27;;;;;;;71.20;40.10;;;;;;;5.41;98.00;102422.23;181105;1264;43058;-71
2023/01/24 12:21:35;;;;;;;66.40;43.40;;;;;;;5.47;98.18;102417.52;181149;1265;43746;-71
2023/01/24 12:25:44;;;;;;;75.60;43.80;;;;;;;5.52;98.00;102418.29;181132;1265;43421;-71
2023/01/24 12:30:06;;;;;;;63.70;41.00;;;;;;;5.56;98.08;102418.51;181146;1265;58178;-71
2023/01/24 12:34:26;;;;;;;61.70;40.50;;;;;;;5.61;97.65;102416.30;181130;1265;43653;-70
2023/01/24 12:38:35;;;;;;;65.70;37.90;;;;;;;5.61;97.15;102413.82;181145;1264;43187;-71
2023/01/24 12:43:01;;;;;;;69.90;43.60;;;;;;;5.62;96.96;102407.46;181137;1265;43160;-71
2023/01/24 12:47:04;;;;;;;68.80;41.00;;;;;;;5.66;96.70;102410.51;181124;1264;43735;-71
2023/01/24 12:51:21;;;;;;;58.30;38.40;;;;;;;5.71;97.02;102408.99;181219;1265;58063;-71
2023/01/24 12:55:49;;;;;;;65.30;38.70;;;;;;;5.71;96.88;102406.51;181161;1264;43861;-70
2023/01/24 12:59:52;;;;;;;67.30;42.40;;;;;;;5.69;96.58;102409.55;181131;1266;43994;-71
2023/01/24 13:09:01;;;;;;;75.00;44.20;;;;;;;5.62;97.16;102405.69;181178;1266;43665;-71
2023/01/24 13:13:55;;;;;;;58.30;38.30;;;;;;;5.66;98.32;102399.96;181159;1265;58772;-72
2023/01/24 13:18:35;;;;;;;69.70;39.80;;;;;;;5.70;97.43;102398.61;181215;1265;42998;-71
2023/01/24 13:23:15;;;;;;;60.60;38.90;;;;;;;5.71;97.54;102394.72;181197;1264;43152;-71
2023/01/24 13:27:50;;;;;;;60.70;38.60;;;;;;;5.73;97.17;102397.30;181219;1264;43144;-71
2023/01/24 13:32:18;;;;;;;63.30;43.90;;;;;;;5.78;97.70;102402.61;180150;1273;43585;-71
2023/01/24 13:36:33;;;;;;;58.70;40.20;;;;;;;5.81;97.92;102400.59;179963;1273;57949;-71
2023/01/24 13:40:36;;;;;;;64.20;38.70;;;;;;;5.82;97.20;102401.46;179952;1273;43520;-71
2023/01/24 13:44:39;;;;;;;63.60;41.90;;;;;;;5.80;97.33;102404.52;180114;1274;43120;-71
2023/01/24 13:48:42;;;;;;;60.50;37.50;;;;;;;5.75;97.37;102406.21;180217;1273;43751;-71
2023/01/24 13:52:51;;;;;;;67.60;39.00;;;;;;;5.72;97.48;102407.39;180185;1273;43906;-71
2023/01/24 13:57:03;;;;;;;59.50;42.60;;;;;;;5.71;97.74;102402.09;179788;1274;58350;-70
2023/01/24 14:01:15;;;;;;;69.00;40.50;;;;;;;5.72;97.62;102405.98;180260;1273;43104;-71
2023/01/24 14:05:30;;;;;;;65.90;44.90;;;;;;;5.69;98.10;102403.92;180239;1273;43399;-71
2023/01/24 14:09:33;;;;;;;57.80;37.60;;;;;;;5.70;97.94;102403.54;180959;1265;43126;-71
2023/01/24 14:14:25;;;;;;;62.90;43.00;;;;;;;5.69;97.87;102408.67;181167;1265;43718;-71
2023/01/24 14:19:13;;;;;;;66.20;42.20;;;;;;;5.63;97.82;102406.73;180732;1270;58837;-71
2023/01/24 14:23:21;;;;;;;65.30;40.80;;;;;;;5.59;98.28;102408.23;180671;1271;43841;-71
2023/01/24 14:27:29;;;;;;;69.20;44.00;;;;;;;5.56;98.66;102405.48;180590;1271;43062;-71
2023/01/24 14:31:38;;;;;;;69.80;42.80;;;;;;;5.53;98.86;102405.22;180700;1271;43092;-71
2023/01/24 14:35:59;;;;;;;63.60;41.20;;;;;;;5.53;99.41;102409.80;180753;1270;43796;-70
2023/01/24 14:40:24;;;;;;;68.70;40.80;;;;;;;5.51;99.47;102412.50;180798;1270;59243;-72
2023/01/24 14:44:30;;;;;;;68.00;40.40;;;;;;;5.50;99.69;102418.52;180769;1270;43740;-71
2023/01/24 14:48:33;;;;;;;69.80;40.60;;;;;;;5.50;99.70;102420.09;180786;1271;43093;-73
2023/01/24 14:52:38;;;;;;;57.70;40.20;;;;;;;5.48;99.61;102417.30;180870;1265;43756;-71
2023/01/24 14:56:41;;;;;;;68.90;42.60;;;;;;;5.52;99.53;102422.69;181057;1264;43671;-70
2023/01/24 15:01:23;;;;;;;67.80;40.40;;;;;;;5.52;99.69;102415.27;181092;1265;58298;-71
2023/01/24 15:05:32;;;;;;;62.70;38.60;;;;;;;5.57;99.68;102414.09;181067;1265;43793;-71
2023/01/24 15:09:35;;;;;;;71.70;42.50;;;;;;;5.57;99.23;102416.91;181140;1264;43024;-71
2023/01/24 15:18:42;;;;;;;71.60;50.10;;;;;;;5.58;99.32;102415.11;181131;1266;43337;-71
2023/01/24 15:22:52;;;;;;;83.20;51.20;;;;;;;5.59;99.24;102410.70;181148;1266;60542;-71
2023/01/24 15:26:57;;;;;;;74.40;44.10;;;;;;;5.56;99.20;102412.88;181147;1263;43066;-71
2023/01/24 15:31:01;;;;;;;64.60;43.00;;;;;;;5.53;99.39;102409.98;181167;1267;43042;-71
2023/01/24 15:35:26;;;;;;;92.40;50.80;;;;;;;5.50;99.61;102411.30;181069;1265;43606;-71
2023/01/24 15:39:29;;;;;;;76.90;49.30;;;;;;;5.49;99.96;102411.67;181175;1264;43668;-70
2023/01/24 15:43:46;;;;;;;79.50;48.00;;;;;;;5.52;99.96;102413.54;181137;1265;64311;-70
2023/01/24 15:48:22;;;;;;;84.50;47.30;;;;;;;5.51;100.00;102418.84;181101;1265;43728;-71
2023/01/24 15:52:25;;;;;;;72.40;46.80;;;;;;;5.51;100.00;102416.71;181144;1266;43253;-71
2023/01/24 15:56:29;;;;;;;73.50;46.50;;;;;;;5.54;100.00;102418.73;181089;1265;43193;-70
2023/01/24 16:00:37;;;;;;;79.70;46.00;;;;;;;5.56;99.93;102420.80;181151;1264;43008;-72
2023/01/24 16:09:48;;;;;;;69.00;44.90;;;;;;;5.55;99.64;102411.84;181100;1265;44073;-72
2023/01/24 16:13:55;;;;;;;70.50;43.10;;;;;;;5.51;99.71;102419.89;181058;1265;43436;-72
2023/01/24 16:18:14;;;;;;;63.60;38.40;;;;;;;5.49;99.84;102423.98;181175;1266;43125;-73
2023/01/24 16:22:17;;;;;;;57.20;38.40;;;;;;;5.50;100.00;102420.63;181075;1268;43391;-73
2023/01/24 16:26:29;;;;;;;75.50;44.60;;;;;;;5.50;99.90;102418.86;181070;1268;57887;-72
2023/01/24 16:30:32;;;;;;;74.90;47.50;;;;;;;5.51;100.00;102418.66;181115;1268;44010;-73
2023/01/24 16:34:59;;;;;;;74.90;46.50;;;;;;;5.52;99.98;102412.13;181138;1267;44483;-73
2023/01/24 16:39:03;;;;;;;76.90;43.80;;;;;;;5.57;100.00;102410.23;181174;1264;43467;-75
2023/01/24 16:43:17;;;;;;;63.80;43.30;;;;;;;5.60;99.87;102417.02;181137;1266;43037;-73
2023/01/24 16:47:20;;;;;;;64.10;42.90;;;;;;;5.61;99.70;102416.10;181109;1266;58056;-74
2023/01/24 16:51:29;;;;;;;73.10;44.50;;;;;;;5.64;99.69;102413.91;181077;1265;43039;-77
2023/01/24 16:55:37;;;;;;;87.40;53.80;;;;;;;5.64;99.33;102415.31;181144;1267;43954;-73
2023/01/24 16:59:40;;;;;;;68.60;45.00;;;;;;;5.62;99.46;102412.56;181076;1265;43454;-72
2023/01/24 17:03:43;;;;;;;86.80;54.00;;;;;;;5.57;99.50;102407.94;181062;1266;42977;-73
2023/01/24 17:08:01;;;;;;;80.70;47.90;;;;;;;5.52;99.45;102407.18;181109;1265;57878;-73
2023/01/24 17:12:04;;;;;;;82.00;50.50;;;;;;;5.51;99.91;102406.35;181104;1265;43229;-73
2023/01/24 17:16:17;;;;;;;74.50;46.40;;;;;;;5.53;100.00;102407.16;181136;1267;43129;-75
2023/01/24 17:20:20;;;;;;;80.80;51.40;;;;;;;5.52;99.92;102402.44;181124;1265;43731;-73
2023/01/24 17:24:23;;;;;;;89.90;55.50;;;;;;;5.49;99.97;102401.46;181113;1265;43628;-74
2023/01/24 17:28:27;;;;;;;109.30;57.40;;;;;;;5.44;99.93;102399.29;181087;1266;58247;-72
2023/01/24 17:32:32;;;;;;;88.00;52.00;;;;;;;5.39;100.00;102395.21;181138;1267;43791;-74
2023/01/24 17:36:36;;;;;;;87.40;51.60;;;;;;;5.37;100.00;102405.47;181146;1264;43851;-73
2023/01/24 17:40:51;;;;;;;83.80;50.10;;;;;;;5.37;100.00;102408.10;180707;1267;78934;-90
2023/01/24 17:45:21;;;;;;;85.40;51.90;;;;;;;5.39;100.00;102415.80;180770;1260;75901;-75
2023/01/24 18:01:11;;;;;;;63.20;40.30;;;;;;;5.35;100.00;102416.79;180960;1268;43127;-76
2023/01/24 18:06:06;;;;;;;70.60;43.00;;;;;;;5.30;100.00;102418.66;180927;1267;43641;-75
2023/01/24 18:10:13;;;;;;;70.60;42.00;;;;;;;5.23;100.00;102420.94;180993;1267;44795;-76
2023/01/24 18:14:24;;;;;;;72.80;45.80;;;;;;;5.24;100.00;102424.61;180850;1266;57512;-75
2023/01/24 18:18:27;;;;;;;70.50;44.90;;;;;;;5.20;100.00;102428.77;181038;1267;43908;-76
2023/01/24 18:22:31;;;;;;;71.70;43.40;;;;;;;5.18;100.00;102432.30;180947;1267;43757;-76
2023/01/24 18:26:37;;;;;;;74.10;47.90;;;;;;;5.13;100.00;102437.02;181017;1265;43705;-76
2023/01/24 18:30:47;;;;;;;74.30;44.80;;;;;;;5.10;100.00;102434.29;180908;1266;43957;-77
2023/01/24 18:34:50;;;;;;;70.40;40.50;;;;;;;5.10;100.00;102431.11;180901;1268;57966;-75
2023/01/24 18:39:58;;;;;;;69.50;43.70;;;;;;;5.15;100.00;102432.39;180927;1266;43839;-76
2023/01/24 18:44:03;;;;;;;;;;;;;;;5.17;100.00;102432.17;180973;1267;43723;-76
2023/01/24 18:48:08;;;;;;;71.80;43.80;;;;;;;5.17;100.00;102428.84;180897;1267;43545;-76
2023/01/24 18:52:11;;;;;;;84.80;49.80;;;;;;;5.18;100.00;102427.92;180905;1267;43782;-76
2023/01/24 18:56:18;;;;;;;79.80;48.70;;;;;;;5.21;100.00;102421.35;180866;1268;59218;-77
2023/01/24 19:00:23;;;;;;;82.10;47.90;;;;;;;5.27;100.00;102423.47;180897;1267;43722;-77
2023/01/24 19:04:30;;;;;;;77.60;44.90;;;;;;;5.28;100.00;102420.46;181015;1267;43866;-76
2023/01/24 19:08:33;;;;;;;82.60;46.20;;;;;;;5.28;100.00;102416.41;180823;1267;45803;-76
2023/01/24 19:12:36;;;;;;;73.40;47.80;;;;;;;5.29;100.00;102413.05;180944;1267;43087;-74
2023/01/24 19:16:42;;;;;;;71.00;45.80;;;;;;;5.28;100.00;102410.24;181020;1267;58892;-75
2023/01/24 19:20:45;;;;;;;79.00;45.80;;;;;;;5.25;100.00;102402.44;180899;1268;43220;-75
2023/01/24 19:24:48;;;;;;;80.50;53.70;;;;;;;5.16;100.00;102395.08;180928;1267;43913;-74
2023/01/24 19:28:58;;;;;;;87.10;54.10;;;;;;;5.07;100.00;102396.02;180940;1267;43141;-75
2023/01/24 19:33:01;;;;;;;87.20;52.70;;;;;;;4.99;100.00;102396.03;180916;1267;43753;-76
2023/01/24 19:37:05;;;;;;;74.50;50.50;;;;;;;4.96;100.00;102401.20;180971;1266;58375;-77
2023/01/24 19:41:08;;;;;;;97.40;57.30;;;;;;;4.94;100.00;102404.06;181015;1267;43691;-75
2023/01/24 19:45:11;;;;;;;85.50;52.70;;;;;;;4.93;100.00;102407.96;180958;1267;43828;-74
2023/01/24 19:50:04;;;;;;;79.20;48.40;;;;;;;4.89;100.00;102418.24;180961;1267;43198;-77
2023/01/24 20:00:00;;;;;;;88.00;54.60;;;;;;;4.89;100.00;102427.92;180982;1268;58548;-74
2023/01/24 20:04:30;;;;;;;70.70;45.00;;;;;;;4.90;100.00;102426.66;181013;1267;43689;-77
2023/01/24 20:08:47;;;;;;;86.80;49.00;;;;;;;4.92;100.00;102436.29;181039;1267;42981;-73
2023/01/24 20:12:54;;;;;;;91.40;53.50;;;;;;;4.96;100.00;102433.73;180903;1267;43685;-76
2023/01/24 20:16:57;;;;;;;84.10;51.30;;;;;;;5.01;100.00;102430.45;180860;1267;43054;-73
2023/01/24 20:21:14;;;;;;;80.00;51.90;;;;;;;5.06;100.00;102430.16;180891;1267;58418;-74
2023/01/24 20:25:17;;;;;;;81.60;52.20;;;;;;;5.04;100.00;102423.19;180989;1267;43141;-74
2023/01/24 20:34:58;;;;;;;79.60;54.10;;;;;;;4.95;100.00;102421.98;181039;1266;43123;-74
2023/01/24 20:39:10;;;;;;;92.40;54.40;;;;;;;4.89;100.00;102422.82;181016;1267;43752;-73
2023/01/24 20:43:12;;;;;;;82.50;45.50;;;;;;;4.84;100.00;102425.40;180974;1268;58070;-73